sensor_id;sensor_type;location;lat;lon;timestamp;temperature;humidity
62363;DHT22;48396;48.426;1.500;2023-06-22T00:00:02;25.10;80.60
62363;DHT22;48396;48.426;1.500;2023-06-22T00:02:34;25.10;80.90
62363;DHT22;48396;48.426;1.500;2023-06-22T00:04:59;25.10;81.10
62363;DHT22;48396;48.426;1.500;2023-06-22T00:07:25;25.10;81.10
62363;DHT22;48396;48.426;1.500;2023-06-22T00:09:50;25.10;81.10
62363;DHT22;48396;48.426;1.500;2023-06-22T00:12:16;25.10;81.40
62363;DHT22;48396;48.426;1.500;2023-06-22T00:14:41;25.00;81.60
62363;DHT22;48396;48.426;1.500;2023-06-22T00:17:07;25.00;81.90
62363;DHT22;48396;48.426;1.500;2023-06-22T00:19:33;24.90;82.20
62363;DHT22;48396;48.426;1.500;2023-06-22T00:22:00;24.90;82.40
62363;DHT22;48396;48.426;1.500;2023-06-22T00:24:28;24.90;83.20
62363;DHT22;48396;48.426;1.500;2023-06-22T00:26:54;24.80;83.00
62363;DHT22;48396;48.426;1.500;2023-06-22T00:29:19;24.80;83.40
62363;DHT22;48396;48.426;1.500;2023-06-22T00:31:45;24.70;83.80
62363;DHT22;48396;48.426;1.500;2023-06-22T00:34:10;24.80;83.60
62363;DHT22;48396;48.426;1.500;2023-06-22T00:36:36;24.80;83.50
62363;DHT22;48396;48.426;1.500;2023-06-22T00:39:02;24.80;83.70
62363;DHT22;48396;48.426;1.500;2023-06-22T00:41:27;24.80;83.70
62363;DHT22;48396;48.426;1.500;2023-06-22T00:43:54;24.80;84.10
62363;DHT22;48396;48.426;1.500;2023-06-22T00:46:21;24.80;84.00
62363;DHT22;48396;48.426;1.500;2023-06-22T00:48:48;24.70;84.40
62363;DHT22;48396;48.426;1.500;2023-06-22T00:51:14;24.60;84.30
62363;DHT22;48396;48.426;1.500;2023-06-22T00:53:39;24.60;84.70
62363;DHT22;48396;48.426;1.500;2023-06-22T00:56:06;24.60;84.80
62363;DHT22;48396;48.426;1.500;2023-06-22T00:58:35;24.60;85.00
62363;DHT22;48396;48.426;1.500;2023-06-22T01:01:01;24.60;84.90
62363;DHT22;48396;48.426;1.500;2023-06-22T01:03:27;24.60;84.80
62363;DHT22;48396;48.426;1.500;2023-06-22T01:06:02;24.60;85.00
62363;DHT22;48396;48.426;1.500;2023-06-22T01:08:57;24.50;85.40
62363;DHT22;48396;48.426;1.500;2023-06-22T01:11:38;24.50;85.30
62363;DHT22;48396;48.426;1.500;2023-06-22T01:15:11;24.50;85.50
62363;DHT22;48396;48.426;1.500;2023-06-22T01:17:07;24.50;85.60
62363;DHT22;48396;48.426;1.500;2023-06-22T01:19:49;24.50;85.80
62363;DHT22;48396;48.426;1.500;2023-06-22T01:22:22;24.40;86.10
62363;DHT22;48396;48.426;1.500;2023-06-22T01:24:59;24.40;86.20
62363;DHT22;48396;48.426;1.500;2023-06-22T01:30:11;24.30;86.40
62363;DHT22;48396;48.426;1.500;2023-06-22T01:32:40;24.30;86.80
62363;DHT22;48396;48.426;1.500;2023-06-22T01:35:07;24.20;87.20
62363;DHT22;48396;48.426;1.500;2023-06-22T01:37:35;24.10;87.40
62363;DHT22;48396;48.426;1.500;2023-06-22T01:40:02;24.10;87.60
62363;DHT22;48396;48.426;1.500;2023-06-22T01:42:30;24.20;87.50
62363;DHT22;48396;48.426;1.500;2023-06-22T01:44:57;24.10;87.90
62363;DHT22;48396;48.426;1.500;2023-06-22T01:47:23;24.10;88.30
62363;DHT22;48396;48.426;1.500;2023-06-22T01:49:50;24.00;88.30
62363;DHT22;48396;48.426;1.500;2023-06-22T01:52:19;24.00;88.40
62363;DHT22;48396;48.426;1.500;2023-06-22T01:54:46;24.10;88.10
62363;DHT22;48396;48.426;1.500;2023-06-22T01:57:12;24.10;88.30
62363;DHT22;48396;48.426;1.500;2023-06-22T02:02:07;24.00;88.30
62363;DHT22;48396;48.426;1.500;2023-06-22T02:04:55;24.00;88.30
62363;DHT22;48396;48.426;1.500;2023-06-22T02:07:46;24.00;88.80
62363;DHT22;48396;48.426;1.500;2023-06-22T02:10:15;24.00;88.60
62363;DHT22;48396;48.426;1.500;2023-06-22T02:12:42;24.00;88.40
62363;DHT22;48396;48.426;1.500;2023-06-22T02:15:10;24.00;88.40
62363;DHT22;48396;48.426;1.500;2023-06-22T02:17:38;24.00;88.30
62363;DHT22;48396;48.426;1.500;2023-06-22T02:20:04;24.00;88.30
62363;DHT22;48396;48.426;1.500;2023-06-22T02:22:34;24.00;88.30
62363;DHT22;48396;48.426;1.500;2023-06-22T02:24:59;24.00;88.50
62363;DHT22;48396;48.426;1.500;2023-06-22T02:27:25;24.00;88.50
62363;DHT22;48396;48.426;1.500;2023-06-22T02:29:50;24.00;88.30
62363;DHT22;48396;48.426;1.500;2023-06-22T02:32:16;24.00;88.40
62363;DHT22;48396;48.426;1.500;2023-06-22T02:34:43;24.10;88.20
62363;DHT22;48396;48.426;1.500;2023-06-22T02:37:13;24.00;88.10
62363;DHT22;48396;48.426;1.500;2023-06-22T02:39:40;24.00;88.20
62363;DHT22;48396;48.426;1.500;2023-06-22T02:42:06;23.90;88.30
62363;DHT22;48396;48.426;1.500;2023-06-22T02:44:31;23.90;88.40
62363;DHT22;48396;48.426;1.500;2023-06-22T02:46:57;23.80;88.70
62363;DHT22;48396;48.426;1.500;2023-06-22T02:49:23;23.80;88.60
62363;DHT22;48396;48.426;1.500;2023-06-22T02:51:49;23.80;88.60
62363;DHT22;48396;48.426;1.500;2023-06-22T02:54:15;23.70;88.60
62363;DHT22;48396;48.426;1.500;2023-06-22T02:56:42;23.70;88.70
62363;DHT22;48396;48.426;1.500;2023-06-22T02:59:09;23.60;88.70
62363;DHT22;48396;48.426;1.500;2023-06-22T03:01:36;23.60;88.70
62363;DHT22;48396;48.426;1.500;2023-06-22T03:04:09;23.60;88.90
62363;DHT22;48396;48.426;1.500;2023-06-22T03:06:35;23.50;89.00
62363;DHT22;48396;48.426;1.500;2023-06-22T03:09:03;23.50;89.30
62363;DHT22;48396;48.426;1.500;2023-06-22T03:11:29;23.40;89.40
62363;DHT22;48396;48.426;1.500;2023-06-22T03:13:56;23.30;89.50
62363;DHT22;48396;48.426;1.500;2023-06-22T03:16:21;23.30;89.70
62363;DHT22;48396;48.426;1.500;2023-06-22T03:18:47;23.30;89.60
62363;DHT22;48396;48.426;1.500;2023-06-22T03:21:13;23.30;89.40
62363;DHT22;48396;48.426;1.500;2023-06-22T03:23:40;23.40;89.50
62363;DHT22;48396;48.426;1.500;2023-06-22T03:26:06;23.30;89.40
62363;DHT22;48396;48.426;1.500;2023-06-22T03:28:50;23.30;89.40
62363;DHT22;48396;48.426;1.500;2023-06-22T03:31:16;23.30;89.40
62363;DHT22;48396;48.426;1.500;2023-06-22T03:33:41;23.30;89.60
62363;DHT22;48396;48.426;1.500;2023-06-22T03:36:07;23.30;89.50
62363;DHT22;48396;48.426;1.500;2023-06-22T03:38:33;23.30;89.50
62363;DHT22;48396;48.426;1.500;2023-06-22T03:40:59;23.20;89.60
62363;DHT22;48396;48.426;1.500;2023-06-22T03:43:25;23.20;89.80
62363;DHT22;48396;48.426;1.500;2023-06-22T03:45:50;23.20;89.80
62363;DHT22;48396;48.426;1.500;2023-06-22T03:48:16;23.20;89.80
62363;DHT22;48396;48.426;1.500;2023-06-22T03:50:41;23.20;89.80
62363;DHT22;48396;48.426;1.500;2023-06-22T03:53:09;23.20;89.80
62363;DHT22;48396;48.426;1.500;2023-06-22T03:55:36;23.20;89.80
62363;DHT22;48396;48.426;1.500;2023-06-22T03:58:01;23.20;89.60
62363;DHT22;48396;48.426;1.500;2023-06-22T04:00:31;23.20;89.60
62363;DHT22;48396;48.426;1.500;2023-06-22T04:02:57;23.30;89.50
62363;DHT22;48396;48.426;1.500;2023-06-22T04:05:22;23.30;89.40
62363;DHT22;48396;48.426;1.500;2023-06-22T04:07:49;23.20;89.20
62363;DHT22;48396;48.426;1.500;2023-06-22T04:10:15;23.30;89.30
62363;DHT22;48396;48.426;1.500;2023-06-22T04:12:41;23.30;89.00
62363;DHT22;48396;48.426;1.500;2023-06-22T04:15:06;23.30;89.10
62363;DHT22;48396;48.426;1.500;2023-06-22T04:17:51;23.30;89.10
62363;DHT22;48396;48.426;1.500;2023-06-22T04:20:17;23.30;89.00
62363;DHT22;48396;48.426;1.500;2023-06-22T04:22:42;23.30;89.00
62363;DHT22;48396;48.426;1.500;2023-06-22T04:25:08;23.20;89.20
62363;DHT22;48396;48.426;1.500;2023-06-22T04:27:34;23.20;89.10
62363;DHT22;48396;48.426;1.500;2023-06-22T04:30:06;23.30;89.20
62363;DHT22;48396;48.426;1.500;2023-06-22T04:32:33;23.30;89.90
62363;DHT22;48396;48.426;1.500;2023-06-22T04:34:58;23.30;90.00
62363;DHT22;48396;48.426;1.500;2023-06-22T04:37:27;23.20;90.50
62363;DHT22;48396;48.426;1.500;2023-06-22T04:39:53;23.20;90.60
62363;DHT22;48396;48.426;1.500;2023-06-22T04:42:18;23.20;90.50
62363;DHT22;48396;48.426;1.500;2023-06-22T04:44:44;23.20;90.50
62363;DHT22;48396;48.426;1.500;2023-06-22T04:47:29;23.20;90.80
62363;DHT22;48396;48.426;1.500;2023-06-22T04:49:54;23.20;90.70
62363;DHT22;48396;48.426;1.500;2023-06-22T04:52:20;23.20;90.90
62363;DHT22;48396;48.426;1.500;2023-06-22T04:54:45;23.20;91.10
62363;DHT22;48396;48.426;1.500;2023-06-22T04:57:13;23.10;91.20
62363;DHT22;48396;48.426;1.500;2023-06-22T04:59:40;23.10;91.30
62363;DHT22;48396;48.426;1.500;2023-06-22T05:02:07;23.10;91.40
62363;DHT22;48396;48.426;1.500;2023-06-22T05:04:33;23.10;91.80
62363;DHT22;48396;48.426;1.500;2023-06-22T05:07:01;23.00;92.00
62363;DHT22;48396;48.426;1.500;2023-06-22T05:09:27;22.90;92.10
62363;DHT22;48396;48.426;1.500;2023-06-22T05:11:52;22.90;92.10
62363;DHT22;48396;48.426;1.500;2023-06-22T05:14:18;22.90;92.10
62363;DHT22;48396;48.426;1.500;2023-06-22T05:16:45;22.80;92.40
62363;DHT22;48396;48.426;1.500;2023-06-22T05:19:11;22.80;92.50
62363;DHT22;48396;48.426;1.500;2023-06-22T05:21:37;22.80;92.50
62363;DHT22;48396;48.426;1.500;2023-06-22T05:24:03;22.70;92.50
62363;DHT22;48396;48.426;1.500;2023-06-22T05:26:33;22.70;92.80
62363;DHT22;48396;48.426;1.500;2023-06-22T05:29:00;22.70;93.40
62363;DHT22;48396;48.426;1.500;2023-06-22T05:31:26;22.60;93.30
62363;DHT22;48396;48.426;1.500;2023-06-22T05:33:54;22.60;93.30
62363;DHT22;48396;48.426;1.500;2023-06-22T05:36:20;22.50;93.70
62363;DHT22;48396;48.426;1.500;2023-06-22T05:38:47;22.50;93.70
62363;DHT22;48396;48.426;1.500;2023-06-22T05:41:13;22.50;93.80
62363;DHT22;48396;48.426;1.500;2023-06-22T05:43:39;22.60;93.80
62363;DHT22;48396;48.426;1.500;2023-06-22T05:46:05;22.60;94.00
62363;DHT22;48396;48.426;1.500;2023-06-22T05:48:31;22.70;93.90
62363;DHT22;48396;48.426;1.500;2023-06-22T05:50:57;22.60;94.10
62363;DHT22;48396;48.426;1.500;2023-06-22T05:53:23;22.60;94.20
62363;DHT22;48396;48.426;1.500;2023-06-22T05:56:07;22.60;94.20
62363;DHT22;48396;48.426;1.500;2023-06-22T05:58:32;22.60;94.10
62363;DHT22;48396;48.426;1.500;2023-06-22T06:00:58;22.60;94.30
62363;DHT22;48396;48.426;1.500;2023-06-22T06:03:26;22.60;94.30
62363;DHT22;48396;48.426;1.500;2023-06-22T06:05:54;22.60;94.50
62363;DHT22;48396;48.426;1.500;2023-06-22T06:08:19;22.60;94.40
62363;DHT22;48396;48.426;1.500;2023-06-22T06:10:45;22.60;94.30
62363;DHT22;48396;48.426;1.500;2023-06-22T06:13:10;22.60;94.30
62363;DHT22;48396;48.426;1.500;2023-06-22T06:15:36;22.50;94.40
62363;DHT22;48396;48.426;1.500;2023-06-22T06:18:02;22.50;94.50
62363;DHT22;48396;48.426;1.500;2023-06-22T06:20:30;22.50;94.50
62363;DHT22;48396;48.426;1.500;2023-06-22T06:22:56;22.40;94.80
62363;DHT22;48396;48.426;1.500;2023-06-22T06:25:22;22.40;94.80
62363;DHT22;48396;48.426;1.500;2023-06-22T06:27:49;22.40;94.90
62363;DHT22;48396;48.426;1.500;2023-06-22T06:30:16;22.40;95.00
62363;DHT22;48396;48.426;1.500;2023-06-22T06:32:43;22.40;95.00
62363;DHT22;48396;48.426;1.500;2023-06-22T06:37:55;22.40;95.00
62363;DHT22;48396;48.426;1.500;2023-06-22T06:40:21;22.40;95.10
62363;DHT22;48396;48.426;1.500;2023-06-22T06:42:48;22.40;95.40
62363;DHT22;48396;48.426;1.500;2023-06-22T06:45:18;22.40;95.60
62363;DHT22;48396;48.426;1.500;2023-06-22T06:47:44;22.40;95.70
62363;DHT22;48396;48.426;1.500;2023-06-22T06:50:11;22.40;95.70
62363;DHT22;48396;48.426;1.500;2023-06-22T06:52:36;22.50;95.80
62363;DHT22;48396;48.426;1.500;2023-06-22T06:55:02;22.50;95.80
62363;DHT22;48396;48.426;1.500;2023-06-22T06:57:30;22.50;95.50
62363;DHT22;48396;48.426;1.500;2023-06-22T06:59:56;22.40;95.60
62363;DHT22;48396;48.426;1.500;2023-06-22T07:02:22;22.30;95.60
62363;DHT22;48396;48.426;1.500;2023-06-22T07:04:48;22.30;95.60
62363;DHT22;48396;48.426;1.500;2023-06-22T07:07:14;22.20;95.70
62363;DHT22;48396;48.426;1.500;2023-06-22T07:09:40;22.20;95.70
62363;DHT22;48396;48.426;1.500;2023-06-22T07:12:06;22.20;95.80
62363;DHT22;48396;48.426;1.500;2023-06-22T07:14:32;22.20;95.90
62363;DHT22;48396;48.426;1.500;2023-06-22T07:16:58;22.20;96.00
62363;DHT22;48396;48.426;1.500;2023-06-22T07:19:27;22.10;96.10
62363;DHT22;48396;48.426;1.500;2023-06-22T07:21:54;22.20;96.10
62363;DHT22;48396;48.426;1.500;2023-06-22T07:24:20;22.10;96.10
62363;DHT22;48396;48.426;1.500;2023-06-22T07:26:47;22.10;96.20
62363;DHT22;48396;48.426;1.500;2023-06-22T07:29:13;22.10;96.30
62363;DHT22;48396;48.426;1.500;2023-06-22T07:31:39;22.10;96.20
62363;DHT22;48396;48.426;1.500;2023-06-22T07:34:06;22.20;96.30
62363;DHT22;48396;48.426;1.500;2023-06-22T07:36:32;22.20;96.30
62363;DHT22;48396;48.426;1.500;2023-06-22T07:38:57;22.20;96.20
62363;DHT22;48396;48.426;1.500;2023-06-22T07:41:23;22.30;96.20
62363;DHT22;48396;48.426;1.500;2023-06-22T07:43:49;22.30;96.30
62363;DHT22;48396;48.426;1.500;2023-06-22T07:46:15;22.30;96.30
62363;DHT22;48396;48.426;1.500;2023-06-22T07:48:41;22.20;96.40
62363;DHT22;48396;48.426;1.500;2023-06-22T07:51:07;22.20;96.40
62363;DHT22;48396;48.426;1.500;2023-06-22T07:53:33;22.20;96.60
62363;DHT22;48396;48.426;1.500;2023-06-22T07:58:47;22.20;96.70
62363;DHT22;48396;48.426;1.500;2023-06-22T08:01:14;22.10;96.90
62363;DHT22;48396;48.426;1.500;2023-06-22T08:03:39;22.20;96.90
62363;DHT22;48396;48.426;1.500;2023-06-22T08:06:05;22.20;97.00
62363;DHT22;48396;48.426;1.500;2023-06-22T08:08:31;22.20;97.20
62363;DHT22;48396;48.426;1.500;2023-06-22T08:10:57;22.20;97.40
62363;DHT22;48396;48.426;1.500;2023-06-22T08:13:22;22.20;97.40
62363;DHT22;48396;48.426;1.500;2023-06-22T08:15:48;22.20;97.40
62363;DHT22;48396;48.426;1.500;2023-06-22T08:18:14;22.20;97.50
62363;DHT22;48396;48.426;1.500;2023-06-22T08:20:40;22.20;97.70
62363;DHT22;48396;48.426;1.500;2023-06-22T08:23:05;22.30;97.70
62363;DHT22;48396;48.426;1.500;2023-06-22T08:25:32;22.30;97.60
62363;DHT22;48396;48.426;1.500;2023-06-22T08:27:59;22.40;97.80
62363;DHT22;48396;48.426;1.500;2023-06-22T08:30:24;22.50;97.80
62363;DHT22;48396;48.426;1.500;2023-06-22T08:32:50;22.60;98.10
62363;DHT22;48396;48.426;1.500;2023-06-22T08:35:15;22.70;97.70
62363;DHT22;48396;48.426;1.500;2023-06-22T08:37:41;22.60;97.50
62363;DHT22;48396;48.426;1.500;2023-06-22T08:40:09;22.70;97.80
62363;DHT22;48396;48.426;1.500;2023-06-22T08:42:40;22.60;97.80
62363;DHT22;48396;48.426;1.500;2023-06-22T08:45:06;22.60;97.80
62363;DHT22;48396;48.426;1.500;2023-06-22T08:47:32;22.70;97.80
62363;DHT22;48396;48.426;1.500;2023-06-22T08:49:58;22.70;97.90
62363;DHT22;48396;48.426;1.500;2023-06-22T08:52:24;22.60;97.80
62363;DHT22;48396;48.426;1.500;2023-06-22T08:54:50;22.60;97.70
62363;DHT22;48396;48.426;1.500;2023-06-22T08:57:16;22.50;97.70
62363;DHT22;48396;48.426;1.500;2023-06-22T08:59:42;22.50;97.70
62363;DHT22;48396;48.426;1.500;2023-06-22T09:02:08;22.40;97.80
62363;DHT22;48396;48.426;1.500;2023-06-22T09:04:33;22.40;98.00
62363;DHT22;48396;48.426;1.500;2023-06-22T09:07:02;22.40;98.00
62363;DHT22;48396;48.426;1.500;2023-06-22T09:09:27;22.30;98.00
62363;DHT22;48396;48.426;1.500;2023-06-22T09:11:53;22.30;98.10
62363;DHT22;48396;48.426;1.500;2023-06-22T09:14:19;22.30;98.10
62363;DHT22;48396;48.426;1.500;2023-06-22T09:16:44;22.40;98.10
62363;DHT22;48396;48.426;1.500;2023-06-22T09:19:10;22.30;98.20
62363;DHT22;48396;48.426;1.500;2023-06-22T09:21:36;22.40;98.20
62363;DHT22;48396;48.426;1.500;2023-06-22T09:24:02;22.30;98.10
62363;DHT22;48396;48.426;1.500;2023-06-22T09:26:28;22.20;98.20
62363;DHT22;48396;48.426;1.500;2023-06-22T09:28:53;22.30;98.30
62363;DHT22;48396;48.426;1.500;2023-06-22T09:31:19;22.30;98.20
62363;DHT22;48396;48.426;1.500;2023-06-22T09:33:51;22.30;98.10
62363;DHT22;48396;48.426;1.500;2023-06-22T09:36:36;22.30;98.30
62363;DHT22;48396;48.426;1.500;2023-06-22T09:39:02;22.30;98.30
62363;DHT22;48396;48.426;1.500;2023-06-22T09:41:31;22.30;98.40
62363;DHT22;48396;48.426;1.500;2023-06-22T09:43:56;22.30;98.50
62363;DHT22;48396;48.426;1.500;2023-06-22T09:46:22;22.30;98.50
62363;DHT22;48396;48.426;1.500;2023-06-22T09:48:50;22.40;98.90
62363;DHT22;48396;48.426;1.500;2023-06-22T09:51:16;22.40;98.80
62363;DHT22;48396;48.426;1.500;2023-06-22T09:53:41;22.40;98.80
62363;DHT22;48396;48.426;1.500;2023-06-22T09:56:07;22.40;98.90
62363;DHT22;48396;48.426;1.500;2023-06-22T09:58:36;22.40;98.90
62363;DHT22;48396;48.426;1.500;2023-06-22T10:01:02;22.50;99.00
62363;DHT22;48396;48.426;1.500;2023-06-22T10:03:27;22.50;99.00
62363;DHT22;48396;48.426;1.500;2023-06-22T10:05:53;22.60;99.00
62363;DHT22;48396;48.426;1.500;2023-06-22T10:08:18;22.60;99.20
62363;DHT22;48396;48.426;1.500;2023-06-22T10:10:44;22.60;99.00
62363;DHT22;48396;48.426;1.500;2023-06-22T10:13:10;22.60;99.00
62363;DHT22;48396;48.426;1.500;2023-06-22T10:15:36;22.60;98.90
62363;DHT22;48396;48.426;1.500;2023-06-22T10:18:02;22.60;98.70
62363;DHT22;48396;48.426;1.500;2023-06-22T10:20:28;22.60;98.70
62363;DHT22;48396;48.426;1.500;2023-06-22T10:22:53;22.70;98.80
62363;DHT22;48396;48.426;1.500;2023-06-22T10:25:19;22.70;98.80
62363;DHT22;48396;48.426;1.500;2023-06-22T10:27:45;22.70;98.70
62363;DHT22;48396;48.426;1.500;2023-06-22T10:30:12;22.80;98.70
62363;DHT22;48396;48.426;1.500;2023-06-22T10:32:38;22.80;98.60
62363;DHT22;48396;48.426;1.500;2023-06-22T10:35:05;22.80;98.50
62363;DHT22;48396;48.426;1.500;2023-06-22T10:37:30;22.80;98.40
62363;DHT22;48396;48.426;1.500;2023-06-22T10:39:56;22.80;98.40
62363;DHT22;48396;48.426;1.500;2023-06-22T10:42:22;22.90;98.30
62363;DHT22;48396;48.426;1.500;2023-06-22T10:44:47;22.90;98.20
62363;DHT22;48396;48.426;1.500;2023-06-22T10:47:13;23.00;98.20
62363;DHT22;48396;48.426;1.500;2023-06-22T10:49:39;23.00;98.20
62363;DHT22;48396;48.426;1.500;2023-06-22T10:52:06;23.10;98.10
62363;DHT22;48396;48.426;1.500;2023-06-22T10:54:33;23.20;98.10
62363;DHT22;48396;48.426;1.500;2023-06-22T10:56:59;23.20;98.10
62363;DHT22;48396;48.426;1.500;2023-06-22T10:59:25;23.20;98.00
62363;DHT22;48396;48.426;1.500;2023-06-22T11:01:51;23.20;98.00
62363;DHT22;48396;48.426;1.500;2023-06-22T11:04:17;23.30;98.10
62363;DHT22;48396;48.426;1.500;2023-06-22T11:06:43;23.30;98.20
62363;DHT22;48396;48.426;1.500;2023-06-22T11:09:09;23.40;98.30
62363;DHT22;48396;48.426;1.500;2023-06-22T11:11:34;23.40;98.20
62363;DHT22;48396;48.426;1.500;2023-06-22T11:14:00;23.40;98.10
62363;DHT22;48396;48.426;1.500;2023-06-22T11:16:25;23.50;98.00
62363;DHT22;48396;48.426;1.500;2023-06-22T11:18:51;23.50;98.00
62363;DHT22;48396;48.426;1.500;2023-06-22T11:21:16;23.50;98.20
62363;DHT22;48396;48.426;1.500;2023-06-22T11:23:42;23.50;98.00
62363;DHT22;48396;48.426;1.500;2023-06-22T11:26:08;23.60;98.00
62363;DHT22;48396;48.426;1.500;2023-06-22T11:28:33;23.70;98.00
62363;DHT22;48396;48.426;1.500;2023-06-22T11:30:59;23.80;97.90
62363;DHT22;48396;48.426;1.500;2023-06-22T11:33:24;23.80;97.80
62363;DHT22;48396;48.426;1.500;2023-06-22T11:35:50;23.90;97.80
62363;DHT22;48396;48.426;1.500;2023-06-22T11:38:16;24.00;97.70
62363;DHT22;48396;48.426;1.500;2023-06-22T11:40:42;24.00;97.60
62363;DHT22;48396;48.426;1.500;2023-06-22T11:43:07;24.10;97.50
62363;DHT22;48396;48.426;1.500;2023-06-22T11:45:33;24.10;97.40
62363;DHT22;48396;48.426;1.500;2023-06-22T11:47:59;24.20;97.40
62363;DHT22;48396;48.426;1.500;2023-06-22T11:50:24;24.20;97.20
62363;DHT22;48396;48.426;1.500;2023-06-22T11:52:50;24.20;97.10
62363;DHT22;48396;48.426;1.500;2023-06-22T11:55:18;24.20;96.90
62363;DHT22;48396;48.426;1.500;2023-06-22T11:57:55;24.30;96.90
62363;DHT22;48396;48.426;1.500;2023-06-22T12:00:21;24.40;96.50
62363;DHT22;48396;48.426;1.500;2023-06-22T12:02:52;24.40;96.50
62363;DHT22;48396;48.426;1.500;2023-06-22T12:05:21;24.30;96.30
62363;DHT22;48396;48.426;1.500;2023-06-22T12:07:47;24.40;96.20
62363;DHT22;48396;48.426;1.500;2023-06-22T12:10:12;24.50;96.20
62363;DHT22;48396;48.426;1.500;2023-06-22T12:12:38;24.60;96.20
62363;DHT22;48396;48.426;1.500;2023-06-22T12:15:04;24.70;96.00
62363;DHT22;48396;48.426;1.500;2023-06-22T12:17:31;24.70;96.00
62363;DHT22;48396;48.426;1.500;2023-06-22T12:19:58;24.80;95.70
62363;DHT22;48396;48.426;1.500;2023-06-22T12:22:24;24.80;95.50
62363;DHT22;48396;48.426;1.500;2023-06-22T12:24:49;24.90;95.40
62363;DHT22;48396;48.426;1.500;2023-06-22T12:27:16;25.00;95.20
62363;DHT22;48396;48.426;1.500;2023-06-22T12:29:45;25.00;94.90
62363;DHT22;48396;48.426;1.500;2023-06-22T12:32:10;25.10;94.80
62363;DHT22;48396;48.426;1.500;2023-06-22T12:34:38;25.20;94.70
62363;DHT22;48396;48.426;1.500;2023-06-22T12:37:04;25.30;94.60
62363;DHT22;48396;48.426;1.500;2023-06-22T12:39:31;25.30;94.40
62363;DHT22;48396;48.426;1.500;2023-06-22T12:41:57;25.40;94.20
62363;DHT22;48396;48.426;1.500;2023-06-22T12:44:22;25.50;94.10
62363;DHT22;48396;48.426;1.500;2023-06-22T12:46:48;25.60;93.80
62363;DHT22;48396;48.426;1.500;2023-06-22T12:49:13;25.60;93.60
62363;DHT22;48396;48.426;1.500;2023-06-22T12:51:40;25.70;93.40
62363;DHT22;48396;48.426;1.500;2023-06-22T12:54:07;25.80;93.30
62363;DHT22;48396;48.426;1.500;2023-06-22T12:56:33;25.80;93.00
62363;DHT22;48396;48.426;1.500;2023-06-22T12:58:59;26.00;93.00
62363;DHT22;48396;48.426;1.500;2023-06-22T13:01:27;26.00;92.60
62363;DHT22;48396;48.426;1.500;2023-06-22T13:03:53;26.10;92.00
62363;DHT22;48396;48.426;1.500;2023-06-22T13:06:18;26.20;91.20
62363;DHT22;48396;48.426;1.500;2023-06-22T13:08:44;26.20;90.80
62363;DHT22;48396;48.426;1.500;2023-06-22T13:11:10;26.30;90.40
62363;DHT22;48396;48.426;1.500;2023-06-22T13:13:35;26.40;90.40
62363;DHT22;48396;48.426;1.500;2023-06-22T13:16:01;26.50;90.10
62363;DHT22;48396;48.426;1.500;2023-06-22T13:18:27;26.60;87.50
62363;DHT22;48396;48.426;1.500;2023-06-22T13:20:52;26.60;86.80
62363;DHT22;48396;48.426;1.500;2023-06-22T13:23:23;26.60;86.00
62363;DHT22;48396;48.426;1.500;2023-06-22T13:25:48;26.70;85.60
62363;DHT22;48396;48.426;1.500;2023-06-22T13:28:14;26.70;85.40
62363;DHT22;48396;48.426;1.500;2023-06-22T13:30:41;26.80;85.00
62363;DHT22;48396;48.426;1.500;2023-06-22T13:33:07;26.80;85.20
62363;DHT22;48396;48.426;1.500;2023-06-22T13:35:34;27.00;84.90
62363;DHT22;48396;48.426;1.500;2023-06-22T13:38:00;27.10;84.50
62363;DHT22;48396;48.426;1.500;2023-06-22T13:40:26;27.10;82.90
62363;DHT22;48396;48.426;1.500;2023-06-22T13:42:51;27.20;81.60
62363;DHT22;48396;48.426;1.500;2023-06-22T13:45:17;27.10;80.50
62363;DHT22;48396;48.426;1.500;2023-06-22T13:47:44;27.10;81.40
62363;DHT22;48396;48.426;1.500;2023-06-22T13:50:10;27.00;79.80
62363;DHT22;48396;48.426;1.500;2023-06-22T13:52:35;27.00;80.50
62363;DHT22;48396;48.426;1.500;2023-06-22T13:55:02;27.00;80.10
62363;DHT22;48396;48.426;1.500;2023-06-22T13:57:27;26.90;78.40
62363;DHT22;48396;48.426;1.500;2023-06-22T13:59:53;26.80;77.00
62363;DHT22;48396;48.426;1.500;2023-06-22T14:02:18;26.80;76.70
62363;DHT22;48396;48.426;1.500;2023-06-22T14:04:44;26.60;77.10
62363;DHT22;48396;48.426;1.500;2023-06-22T14:07:10;26.60;76.40
62363;DHT22;48396;48.426;1.500;2023-06-22T14:09:35;26.60;76.60
62363;DHT22;48396;48.426;1.500;2023-06-22T14:12:05;26.60;75.50
62363;DHT22;48396;48.426;1.500;2023-06-22T14:14:32;26.80;75.80
62363;DHT22;48396;48.426;1.500;2023-06-22T14:16:58;26.90;75.00
62363;DHT22;48396;48.426;1.500;2023-06-22T14:19:42;27.10;75.00
62363;DHT22;48396;48.426;1.500;2023-06-22T14:22:08;27.20;73.70
62363;DHT22;48396;48.426;1.500;2023-06-22T14:24:34;27.30;72.80
62363;DHT22;48396;48.426;1.500;2023-06-22T14:26:59;27.30;73.00
62363;DHT22;48396;48.426;1.500;2023-06-22T14:29:27;27.40;71.90
62363;DHT22;48396;48.426;1.500;2023-06-22T14:31:53;27.40;70.30
62363;DHT22;48396;48.426;1.500;2023-06-22T14:34:19;27.40;70.40
62363;DHT22;48396;48.426;1.500;2023-06-22T14:36:44;27.50;70.00
62363;DHT22;48396;48.426;1.500;2023-06-22T14:39:10;27.70;69.70
62363;DHT22;48396;48.426;1.500;2023-06-22T14:41:35;27.80;69.10
62363;DHT22;48396;48.426;1.500;2023-06-22T14:44:01;27.90;67.90
62363;DHT22;48396;48.426;1.500;2023-06-22T14:46:27;27.90;67.50
62363;DHT22;48396;48.426;1.500;2023-06-22T14:48:52;27.90;66.70
62363;DHT22;48396;48.426;1.500;2023-06-22T14:51:18;28.00;66.90
62363;DHT22;48396;48.426;1.500;2023-06-22T14:53:44;28.00;67.60
62363;DHT22;48396;48.426;1.500;2023-06-22T14:56:10;28.10;67.10
62363;DHT22;48396;48.426;1.500;2023-06-22T14:58:35;28.10;67.20
62363;DHT22;48396;48.426;1.500;2023-06-22T15:01:02;28.20;67.50
62363;DHT22;48396;48.426;1.500;2023-06-22T15:03:28;28.20;66.30
62363;DHT22;48396;48.426;1.500;2023-06-22T15:05:56;28.20;66.50
62363;DHT22;48396;48.426;1.500;2023-06-22T15:08:22;28.30;66.60
62363;DHT22;48396;48.426;1.500;2023-06-22T15:10:47;28.50;66.40
62363;DHT22;48396;48.426;1.500;2023-06-22T15:13:14;28.60;65.50
62363;DHT22;48396;48.426;1.500;2023-06-22T15:15:39;28.60;65.10
62363;DHT22;48396;48.426;1.500;2023-06-22T15:18:05;28.60;64.80
62363;DHT22;48396;48.426;1.500;2023-06-22T15:20:31;28.60;65.50
62363;DHT22;48396;48.426;1.500;2023-06-22T15:22:57;28.70;64.70
62363;DHT22;48396;48.426;1.500;2023-06-22T15:25:23;28.70;64.10
62363;DHT22;48396;48.426;1.500;2023-06-22T15:27:49;28.70;64.10
62363;DHT22;48396;48.426;1.500;2023-06-22T15:30:14;28.60;64.50
62363;DHT22;48396;48.426;1.500;2023-06-22T15:32:43;28.60;64.80
62363;DHT22;48396;48.426;1.500;2023-06-22T15:35:10;28.50;64.70
62363;DHT22;48396;48.426;1.500;2023-06-22T15:37:36;28.40;64.50